Terminal Aerodrome Forecast
Issued by NWS

Current Version | Previous Version | Text Only | Print | Product List | Glossary On
Versions: 1 2 3 4 5 6 7 8 9 10 11 12 13 14 15 16 17 18 19
138
FTUS43 KDTX 072330
TAFMBS
TAF
KMBS 072330Z 0800/0824 24013G20KT P6SM BKN035 OVC150
      TEMPO 0800/0802 OVC025
     FM080200 24013G20KT P6SM OVC020
     FM081400 26015G25KT P6SM -SHSN OVC025
     FM082200 26015G25KT P6SM BKN035 OVC080=

USA.gov is the U.S. government's official web portal to all federal, state and local government web resources and services.